sensor_id;sensor_type;location;lat;lon;timestamp;pressure;altitude;pressure_sealevel;temperature;humidity
1926;BME280;964;42.606;23.588;2023-04-19T00:02:00;94057.38;;;30.59;26.27
1926;BME280;964;42.606;23.588;2023-04-19T00:04:27;94062.19;;;30.81;26.48
1926;BME280;964;42.606;23.588;2023-04-19T00:06:54;94055.22;;;30.74;26.44
1926;BME280;964;42.606;23.588;2023-04-19T00:09:22;94058.41;;;30.67;26.28
1926;BME280;964;42.606;23.588;2023-04-19T00:11:51;94063.91;;;29.67;27.26
1926;BME280;964;42.606;23.588;2023-04-19T00:14:18;94055.41;;;30.23;26.76
1926;BME280;964;42.606;23.588;2023-04-19T00:16:46;94046.69;;;30.18;26.85
1926;BME280;964;42.606;23.588;2023-04-19T00:19:13;94056.56;;;30.10;26.92
1926;BME280;964;42.606;23.588;2023-04-19T00:21:40;94040.25;;;29.85;27.40
1926;BME280;964;42.606;23.588;2023-04-19T00:24:07;94043.88;;;29.76;27.36
1926;BME280;964;42.606;23.588;2023-04-19T00:26:33;94043.84;;;30.02;27.49
1926;BME280;964;42.606;23.588;2023-04-19T00:29:00;94052.00;;;29.39;28.11
1926;BME280;964;42.606;23.588;2023-04-19T00:31:27;94054.50;;;29.17;28.30
1926;BME280;964;42.606;23.588;2023-04-19T00:33:55;94054.97;;;29.36;28.08
1926;BME280;964;42.606;23.588;2023-04-19T00:36:22;94055.25;;;29.17;28.26
1926;BME280;964;42.606;23.588;2023-04-19T00:38:49;94048.75;;;29.66;27.99
1926;BME280;964;42.606;23.588;2023-04-19T00:41:16;94055.34;;;28.62;29.01
1926;BME280;964;42.606;23.588;2023-04-19T00:43:42;94047.97;;;29.60;28.07
1926;BME280;964;42.606;23.588;2023-04-19T00:46:10;94056.59;;;29.53;27.91
1926;BME280;964;42.606;23.588;2023-04-19T00:48:37;94054.84;;;29.50;28.28
1926;BME280;964;42.606;23.588;2023-04-19T00:51:06;94059.59;;;29.55;27.83
1926;BME280;964;42.606;23.588;2023-04-19T00:53:35;94053.66;;;30.20;27.34
1926;BME280;964;42.606;23.588;2023-04-19T00:56:03;94058.50;;;29.21;28.53
1926;BME280;964;42.606;23.588;2023-04-19T00:58:31;94058.66;;;29.33;28.30
1926;BME280;964;42.606;23.588;2023-04-19T01:00:58;94042.03;;;30.30;27.54
1926;BME280;964;42.606;23.588;2023-04-19T01:03:25;94046.16;;;30.51;27.33
1926;BME280;964;42.606;23.588;2023-04-19T01:05:54;94046.09;;;30.03;27.47
1926;BME280;964;42.606;23.588;2023-04-19T01:08:22;94047.38;;;30.45;27.15
1926;BME280;964;42.606;23.588;2023-04-19T01:10:49;94042.31;;;30.38;27.09
1926;BME280;964;42.606;23.588;2023-04-19T01:13:16;94037.47;;;30.16;27.47
1926;BME280;964;42.606;23.588;2023-04-19T01:15:43;94038.56;;;30.35;26.87
1926;BME280;964;42.606;23.588;2023-04-19T01:18:09;94041.50;;;30.26;27.51
1926;BME280;964;42.606;23.588;2023-04-19T01:20:38;94036.63;;;30.95;26.78
1926;BME280;964;42.606;23.588;2023-04-19T01:23:06;94032.25;;;31.36;26.35
1926;BME280;964;42.606;23.588;2023-04-19T01:25:36;94043.53;;;30.79;26.73
1926;BME280;964;42.606;23.588;2023-04-19T01:28:03;94034.88;;;30.92;26.37
1926;BME280;964;42.606;23.588;2023-04-19T01:30:30;94033.63;;;30.39;27.22
1926;BME280;964;42.606;23.588;2023-04-19T01:32:57;94034.41;;;31.04;26.81
1926;BME280;964;42.606;23.588;2023-04-19T01:35:24;94032.53;;;31.44;26.11
1926;BME280;964;42.606;23.588;2023-04-19T01:37:50;94024.28;;;31.22;26.47
1926;BME280;964;42.606;23.588;2023-04-19T01:40:22;94026.81;;;31.47;25.72
1926;BME280;964;42.606;23.588;2023-04-19T01:42:50;94027.25;;;31.18;25.94
1926;BME280;964;42.606;23.588;2023-04-19T01:45:16;94024.91;;;30.89;26.64
1926;BME280;964;42.606;23.588;2023-04-19T01:47:43;94021.34;;;31.81;25.09
1926;BME280;964;42.606;23.588;2023-04-19T01:50:10;94022.28;;;31.22;26.28
1926;BME280;964;42.606;23.588;2023-04-19T01:52:37;94022.34;;;31.61;25.98
1926;BME280;964;42.606;23.588;2023-04-19T01:55:04;94017.81;;;31.30;25.63
1926;BME280;964;42.606;23.588;2023-04-19T01:57:32;94021.59;;;31.72;25.42
1926;BME280;964;42.606;23.588;2023-04-19T02:00:00;94025.81;;;31.50;25.89
1926;BME280;964;42.606;23.588;2023-04-19T02:02:27;94020.59;;;31.64;25.21
1926;BME280;964;42.606;23.588;2023-04-19T02:04:53;94018.13;;;31.54;26.03
1926;BME280;964;42.606;23.588;2023-04-19T02:07:20;94024.28;;;30.51;26.44
1926;BME280;964;42.606;23.588;2023-04-19T02:09:47;94017.63;;;30.69;26.88
1926;BME280;964;42.606;23.588;2023-04-19T02:12:14;94014.56;;;31.26;25.79
1926;BME280;964;42.606;23.588;2023-04-19T02:14:43;94016.59;;;31.87;25.82
1926;BME280;964;42.606;23.588;2023-04-19T02:17:10;94012.13;;;31.67;25.15
1926;BME280;964;42.606;23.588;2023-04-19T02:19:37;94027.28;;;31.51;25.85
1926;BME280;964;42.606;23.588;2023-04-19T02:22:03;94017.78;;;31.13;25.75
1926;BME280;964;42.606;23.588;2023-04-19T02:24:30;94019.56;;;31.22;25.68
1926;BME280;964;42.606;23.588;2023-04-19T02:26:57;94015.97;;;30.94;26.13
1926;BME280;964;42.606;23.588;2023-04-19T02:29:25;94019.03;;;31.07;25.92
1926;BME280;964;42.606;23.588;2023-04-19T02:31:53;94011.09;;;31.42;25.74
1926;BME280;964;42.606;23.588;2023-04-19T02:34:20;94010.03;;;31.01;26.33
1926;BME280;964;42.606;23.588;2023-04-19T02:36:47;94018.56;;;31.25;26.05
1926;BME280;964;42.606;23.588;2023-04-19T02:39:14;94022.38;;;30.80;26.64
1926;BME280;964;42.606;23.588;2023-04-19T02:41:41;94019.78;;;30.48;26.49
1926;BME280;964;42.606;23.588;2023-04-19T02:44:08;94017.03;;;31.13;26.10
1926;BME280;964;42.606;23.588;2023-04-19T02:46:35;94017.56;;;31.45;25.45
1926;BME280;964;42.606;23.588;2023-04-19T02:49:03;94014.34;;;31.46;25.39
1926;BME280;964;42.606;23.588;2023-04-19T02:51:30;94009.13;;;31.71;25.21
1926;BME280;964;42.606;23.588;2023-04-19T02:53:57;94003.66;;;31.59;25.27
1926;BME280;964;42.606;23.588;2023-04-19T02:56:24;94009.78;;;31.04;26.28
1926;BME280;964;42.606;23.588;2023-04-19T02:58:52;94003.16;;;31.67;25.70
1926;BME280;964;42.606;23.588;2023-04-19T03:01:19;94009.13;;;31.71;25.18
1926;BME280;964;42.606;23.588;2023-04-19T03:03:46;94012.28;;;31.08;26.00
1926;BME280;964;42.606;23.588;2023-04-19T03:06:14;94012.56;;;31.21;26.13
1926;BME280;964;42.606;23.588;2023-04-19T03:08:41;94012.06;;;31.17;25.79
1926;BME280;964;42.606;23.588;2023-04-19T03:11:08;94020.56;;;31.41;26.14
1926;BME280;964;42.606;23.588;2023-04-19T03:13:35;94013.53;;;31.07;25.73
1926;BME280;964;42.606;23.588;2023-04-19T03:16:02;94019.03;;;31.18;26.22
1926;BME280;964;42.606;23.588;2023-04-19T03:18:28;94012.22;;;30.97;26.68
1926;BME280;964;42.606;23.588;2023-04-19T03:20:55;94011.63;;;30.65;26.65
1926;BME280;964;42.606;23.588;2023-04-19T03:23:24;94006.81;;;31.08;26.50
1926;BME280;964;42.606;23.588;2023-04-19T03:25:51;94004.81;;;30.38;27.35
1926;BME280;964;42.606;23.588;2023-04-19T03:28:18;94009.56;;;30.01;27.65
1926;BME280;964;42.606;23.588;2023-04-19T03:30:45;94010.47;;;29.87;27.75
1926;BME280;964;42.606;23.588;2023-04-19T03:33:12;94006.91;;;30.65;26.90
1926;BME280;964;42.606;23.588;2023-04-19T03:35:39;94001.97;;;30.70;26.87
1926;BME280;964;42.606;23.588;2023-04-19T03:38:05;94005.06;;;31.05;26.32
1926;BME280;964;42.606;23.588;2023-04-19T03:40:36;94011.06;;;30.44;27.28
1926;BME280;964;42.606;23.588;2023-04-19T03:43:03;94000.41;;;30.57;27.28
1926;BME280;964;42.606;23.588;2023-04-19T03:45:30;94011.81;;;30.50;27.05
1926;BME280;964;42.606;23.588;2023-04-19T03:47:57;94005.88;;;31.22;26.43
1926;BME280;964;42.606;23.588;2023-04-19T03:50:23;94013.16;;;30.72;26.82
1926;BME280;964;42.606;23.588;2023-04-19T03:52:50;94009.94;;;30.79;26.53
1926;BME280;964;42.606;23.588;2023-04-19T03:55:18;94007.06;;;31.10;26.55
1926;BME280;964;42.606;23.588;2023-04-19T03:57:47;94010.88;;;30.64;26.90
1926;BME280;964;42.606;23.588;2023-04-19T04:00:14;94011.41;;;30.69;26.93
1926;BME280;964;42.606;23.588;2023-04-19T04:02:42;94016.78;;;30.46;27.36
1926;BME280;964;42.606;23.588;2023-04-19T04:05:19;94020.59;;;30.65;27.31
1926;BME280;964;42.606;23.588;2023-04-19T04:14:44;94018.44;;;30.92;27.20
1926;BME280;964;42.606;23.588;2023-04-19T04:17:11;94017.47;;;30.89;27.30
1926;BME280;964;42.606;23.588;2023-04-19T04:19:38;94020.34;;;30.63;27.22
1926;BME280;964;42.606;23.588;2023-04-19T04:22:05;94023.34;;;30.23;27.61
1926;BME280;964;42.606;23.588;2023-04-19T04:24:37;94020.13;;;30.25;27.68
1926;BME280;964;42.606;23.588;2023-04-19T04:27:06;94028.34;;;29.88;27.84
1926;BME280;964;42.606;23.588;2023-04-19T04:29:34;94020.88;;;30.25;27.34
1926;BME280;964;42.606;23.588;2023-04-19T04:32:03;94024.88;;;30.78;27.07
1926;BME280;964;42.606;23.588;2023-04-19T04:34:30;94026.44;;;31.01;26.41
1926;BME280;964;42.606;23.588;2023-04-19T04:36:57;94031.34;;;30.32;27.27
1926;BME280;964;42.606;23.588;2023-04-19T04:39:25;94021.06;;;30.53;26.97
1926;BME280;964;42.606;23.588;2023-04-19T04:41:52;94029.03;;;30.67;26.89
1926;BME280;964;42.606;23.588;2023-04-19T04:44:20;94033.72;;;30.13;27.12
1926;BME280;964;42.606;23.588;2023-04-19T04:46:46;94034.06;;;29.90;27.60
1926;BME280;964;42.606;23.588;2023-04-19T04:49:15;94041.19;;;29.50;27.99
1926;BME280;964;42.606;23.588;2023-04-19T04:51:41;94030.34;;;30.30;27.07
1926;BME280;964;42.606;23.588;2023-04-19T04:54:08;94032.81;;;30.28;27.23
1926;BME280;964;42.606;23.588;2023-04-19T04:56:35;94033.97;;;30.52;26.97
1926;BME280;964;42.606;23.588;2023-04-19T04:59:02;94032.91;;;29.70;27.66
1926;BME280;964;42.606;23.588;2023-04-19T05:01:29;94037.41;;;29.74;27.45
1926;BME280;964;42.606;23.588;2023-04-19T05:03:56;94037.28;;;29.31;28.11
1926;BME280;964;42.606;23.588;2023-04-19T05:06:24;94032.47;;;29.78;27.66
1926;BME280;964;42.606;23.588;2023-04-19T05:08:51;94046.78;;;29.67;27.81
1926;BME280;964;42.606;23.588;2023-04-19T05:11:19;94037.09;;;29.97;27.34
1926;BME280;964;42.606;23.588;2023-04-19T05:13:46;94037.19;;;30.45;26.73
1926;BME280;964;42.606;23.588;2023-04-19T05:16:13;94038.13;;;30.42;26.99
1926;BME280;964;42.606;23.588;2023-04-19T05:18:40;94036.50;;;30.19;27.23
1926;BME280;964;42.606;23.588;2023-04-19T05:21:06;94036.09;;;30.37;26.86
1926;BME280;964;42.606;23.588;2023-04-19T05:23:36;94046.97;;;30.26;26.78
1926;BME280;964;42.606;23.588;2023-04-19T05:26:03;94045.75;;;30.27;27.05
1926;BME280;964;42.606;23.588;2023-04-19T05:28:30;94040.69;;;30.14;27.19
1926;BME280;964;42.606;23.588;2023-04-19T05:30:57;94039.53;;;30.27;27.15
1926;BME280;964;42.606;23.588;2023-04-19T05:33:24;94051.59;;;30.09;27.28
1926;BME280;964;42.606;23.588;2023-04-19T05:35:51;94043.59;;;30.42;26.99
1926;BME280;964;42.606;23.588;2023-04-19T05:38:17;94045.94;;;30.18;26.86
1926;BME280;964;42.606;23.588;2023-04-19T05:40:46;94046.13;;;29.78;27.55
1926;BME280;964;42.606;23.588;2023-04-19T05:43:12;94048.84;;;29.78;27.72
1926;BME280;964;42.606;23.588;2023-04-19T05:45:39;94031.41;;;30.38;26.73
1926;BME280;964;42.606;23.588;2023-04-19T05:48:06;94042.69;;;30.56;26.94
1926;BME280;964;42.606;23.588;2023-04-19T05:50:34;94044.19;;;30.57;26.86
1926;BME280;964;42.606;23.588;2023-04-19T05:53:01;94043.72;;;30.22;27.19
1926;BME280;964;42.606;23.588;2023-04-19T05:55:28;94039.53;;;29.90;27.22
1926;BME280;964;42.606;23.588;2023-04-19T05:57:57;94056.22;;;29.40;27.82
1926;BME280;964;42.606;23.588;2023-04-19T06:00:24;94048.13;;;29.00;28.44
1926;BME280;964;42.606;23.588;2023-04-19T06:02:52;94038.66;;;30.09;26.98
1926;BME280;964;42.606;23.588;2023-04-19T06:05:18;94054.34;;;29.52;27.78
1926;BME280;964;42.606;23.588;2023-04-19T06:07:45;94055.53;;;29.77;27.21
1926;BME280;964;42.606;23.588;2023-04-19T06:10:12;94052.66;;;29.86;27.34
1926;BME280;964;42.606;23.588;2023-04-19T06:12:39;94055.97;;;29.69;27.44
1926;BME280;964;42.606;23.588;2023-04-19T06:15:08;94058.03;;;29.75;27.57
1926;BME280;964;42.606;23.588;2023-04-19T06:17:36;94050.34;;;30.10;27.36
1926;BME280;964;42.606;23.588;2023-04-19T06:20:03;94059.53;;;29.76;27.56
1926;BME280;964;42.606;23.588;2023-04-19T06:22:32;94055.16;;;29.58;27.63
1926;BME280;964;42.606;23.588;2023-04-19T06:24:59;94044.28;;;29.95;27.40
1926;BME280;964;42.606;23.588;2023-04-19T06:27:26;94046.81;;;30.89;25.96
1926;BME280;964;42.606;23.588;2023-04-19T06:29:53;94055.44;;;30.28;26.97
1926;BME280;964;42.606;23.588;2023-04-19T06:32:22;94055.72;;;29.67;27.46
1926;BME280;964;42.606;23.588;2023-04-19T06:34:50;94066.50;;;30.08;27.20
1926;BME280;964;42.606;23.588;2023-04-19T06:37:17;94054.84;;;31.09;26.11
1926;BME280;964;42.606;23.588;2023-04-19T06:39:44;94062.09;;;30.22;26.88
1926;BME280;964;42.606;23.588;2023-04-19T06:42:10;94064.38;;;30.23;26.83
1926;BME280;964;42.606;23.588;2023-04-19T06:44:37;94070.13;;;28.96;28.32
1926;BME280;964;42.606;23.588;2023-04-19T06:47:04;94058.97;;;29.97;27.13
1926;BME280;964;42.606;23.588;2023-04-19T06:49:33;94064.59;;;30.67;26.52
1926;BME280;964;42.606;23.588;2023-04-19T06:52:00;94070.78;;;30.57;26.63
1926;BME280;964;42.606;23.588;2023-04-19T06:54:27;94074.31;;;29.63;27.66
1926;BME280;964;42.606;23.588;2023-04-19T06:56:55;94065.03;;;31.08;25.94
1926;BME280;964;42.606;23.588;2023-04-19T06:59:22;94070.69;;;30.94;26.66
1926;BME280;964;42.606;23.588;2023-04-19T07:01:52;94070.56;;;31.25;25.88
1926;BME280;964;42.606;23.588;2023-04-19T07:04:21;94075.78;;;30.64;26.78
1926;BME280;964;42.606;23.588;2023-04-19T07:06:49;94071.13;;;30.76;26.26
1926;BME280;964;42.606;23.588;2023-04-19T07:09:16;94071.00;;;30.48;26.72
1926;BME280;964;42.606;23.588;2023-04-19T07:11:43;94071.06;;;30.22;27.17
1926;BME280;964;42.606;23.588;2023-04-19T07:14:12;94069.53;;;31.11;26.03
1926;BME280;964;42.606;23.588;2023-04-19T07:16:38;94058.47;;;32.15;25.39
1926;BME280;964;42.606;23.588;2023-04-19T07:19:05;94061.19;;;32.21;25.47
1926;BME280;964;42.606;23.588;2023-04-19T07:21:32;94062.41;;;31.47;25.30
1926;BME280;964;42.606;23.588;2023-04-19T07:24:01;94072.41;;;30.38;26.42
1926;BME280;964;42.606;23.588;2023-04-19T07:26:28;94059.88;;;31.27;25.68
1926;BME280;964;42.606;23.588;2023-04-19T07:28:55;94075.59;;;30.31;26.97
1926;BME280;964;42.606;23.588;2023-04-19T07:31:22;94067.06;;;31.13;26.08
1926;BME280;964;42.606;23.588;2023-04-19T07:33:50;94063.41;;;31.55;25.94
1926;BME280;964;42.606;23.588;2023-04-19T07:36:17;94067.84;;;31.25;26.03
1926;BME280;964;42.606;23.588;2023-04-19T07:38:44;94067.56;;;31.23;26.24
1926;BME280;964;42.606;23.588;2023-04-19T07:41:12;94067.09;;;31.25;25.94
1926;BME280;964;42.606;23.588;2023-04-19T07:43:39;94064.19;;;31.84;25.14
1926;BME280;964;42.606;23.588;2023-04-19T07:46:08;94067.91;;;31.64;25.70
1926;BME280;964;42.606;23.588;2023-04-19T07:48:36;94071.94;;;31.80;24.94
1926;BME280;964;42.606;23.588;2023-04-19T07:51:08;94069.69;;;31.95;25.49
1926;BME280;964;42.606;23.588;2023-04-19T07:53:35;94066.06;;;32.72;24.96
1926;BME280;964;42.606;23.588;2023-04-19T07:56:02;94063.94;;;32.26;24.99
1926;BME280;964;42.606;23.588;2023-04-19T07:58:30;94070.91;;;31.83;25.67
1926;BME280;964;42.606;23.588;2023-04-19T08:00:57;94065.44;;;31.83;25.37
1926;BME280;964;42.606;23.588;2023-04-19T08:03:25;94068.38;;;32.51;24.65
1926;BME280;964;42.606;23.588;2023-04-19T08:05:52;94068.38;;;32.51;24.33
1926;BME280;964;42.606;23.588;2023-04-19T08:08:19;94070.59;;;33.33;24.37
1926;BME280;964;42.606;23.588;2023-04-19T08:10:46;94058.88;;;33.68;23.67
1926;BME280;964;42.606;23.588;2023-04-19T08:13:12;94060.72;;;33.48;24.08
1926;BME280;964;42.606;23.588;2023-04-19T08:15:41;94071.09;;;32.57;24.84
1926;BME280;964;42.606;23.588;2023-04-19T08:18:09;94050.38;;;34.01;23.66
1926;BME280;964;42.606;23.588;2023-04-19T08:20:35;94059.97;;;33.53;23.73
1926;BME280;964;42.606;23.588;2023-04-19T08:23:02;94061.06;;;33.75;23.35
1926;BME280;964;42.606;23.588;2023-04-19T08:25:30;94062.66;;;33.59;23.10
1926;BME280;964;42.606;23.588;2023-04-19T08:27:57;94051.38;;;33.68;23.29
1926;BME280;964;42.606;23.588;2023-04-19T08:30:24;94048.38;;;33.72;23.31
1926;BME280;964;42.606;23.588;2023-04-19T08:32:52;94062.69;;;33.18;24.00
1926;BME280;964;42.606;23.588;2023-04-19T08:35:19;94054.03;;;32.86;24.20
1926;BME280;964;42.606;23.588;2023-04-19T08:37:47;94054.63;;;32.57;24.75
1926;BME280;964;42.606;23.588;2023-04-19T08:40:14;94055.53;;;32.87;24.25
1926;BME280;964;42.606;23.588;2023-04-19T08:42:41;94058.13;;;33.26;24.38
1926;BME280;964;42.606;23.588;2023-04-19T08:45:09;94037.31;;;33.42;23.96
1926;BME280;964;42.606;23.588;2023-04-19T08:47:39;94032.25;;;34.17;23.10
1926;BME280;964;42.606;23.588;2023-04-19T08:50:08;94024.00;;;34.41;22.89
1926;BME280;964;42.606;23.588;2023-04-19T08:52:36;94025.78;;;34.38;23.27
1926;BME280;964;42.606;23.588;2023-04-19T08:55:04;94038.97;;;34.70;22.83
1926;BME280;964;42.606;23.588;2023-04-19T08:57:33;94027.59;;;34.55;22.83
1926;BME280;964;42.606;23.588;2023-04-19T09:00:01;94021.44;;;34.91;22.08
1926;BME280;964;42.606;23.588;2023-04-19T09:02:43;94028.28;;;34.85;22.16
1926;BME280;964;42.606;23.588;2023-04-19T09:05:12;94021.50;;;34.62;22.41
1926;BME280;964;42.606;23.588;2023-04-19T09:07:40;94017.69;;;35.45;21.24
1926;BME280;964;42.606;23.588;2023-04-19T09:10:09;94023.13;;;34.52;22.72
1926;BME280;964;42.606;23.588;2023-04-19T09:12:37;94021.88;;;34.77;22.81
1926;BME280;964;42.606;23.588;2023-04-19T09:15:06;94022.19;;;34.92;22.42
1926;BME280;964;42.606;23.588;2023-04-19T09:17:34;94030.47;;;34.19;22.75
1926;BME280;964;42.606;23.588;2023-04-19T09:20:02;94022.03;;;34.84;22.44
1926;BME280;964;42.606;23.588;2023-04-19T09:22:31;94030.56;;;34.08;22.88
1926;BME280;964;42.606;23.588;2023-04-19T09:24:59;94023.06;;;34.81;22.33
1926;BME280;964;42.606;23.588;2023-04-19T09:27:28;94024.75;;;34.41;22.88
1926;BME280;964;42.606;23.588;2023-04-19T09:29:56;94019.47;;;34.68;22.35
1926;BME280;964;42.606;23.588;2023-04-19T09:32:24;94018.44;;;34.71;21.77
1926;BME280;964;42.606;23.588;2023-04-19T09:34:53;94018.53;;;34.84;21.82
1926;BME280;964;42.606;23.588;2023-04-19T09:37:20;94009.81;;;34.99;21.79
1926;BME280;964;42.606;23.588;2023-04-19T09:39:49;94014.13;;;35.69;21.18
1926;BME280;964;42.606;23.588;2023-04-19T09:42:16;93997.28;;;38.05;19.49
1926;BME280;964;42.606;23.588;2023-04-19T09:44:57;94007.88;;;35.50;21.86
1926;BME280;964;42.606;23.588;2023-04-19T09:47:25;94006.19;;;36.23;20.58
1926;BME280;964;42.606;23.588;2023-04-19T09:50:04;94002.69;;;36.10;21.17
1926;BME280;964;42.606;23.588;2023-04-19T09:52:32;94008.06;;;37.75;20.00
1926;BME280;964;42.606;23.588;2023-04-19T09:55:01;94003.00;;;38.07;19.22
1926;BME280;964;42.606;23.588;2023-04-19T09:57:29;94006.69;;;37.48;19.56
1926;BME280;964;42.606;23.588;2023-04-19T09:59:58;94000.38;;;37.26;19.97
1926;BME280;964;42.606;23.588;2023-04-19T10:02:30;94001.09;;;36.54;20.04
1926;BME280;964;42.606;23.588;2023-04-19T10:04:57;94002.56;;;36.15;20.44
1926;BME280;964;42.606;23.588;2023-04-19T10:07:25;93993.72;;;37.43;20.06
1926;BME280;964;42.606;23.588;2023-04-19T10:09:54;93998.44;;;36.74;20.04
1926;BME280;964;42.606;23.588;2023-04-19T10:12:25;93983.50;;;37.92;19.49
1926;BME280;964;42.606;23.588;2023-04-19T10:14:53;93985.50;;;38.61;19.14
1926;BME280;964;42.606;23.588;2023-04-19T10:17:22;93967.97;;;39.91;18.17
1926;BME280;964;42.606;23.588;2023-04-19T10:19:52;93964.72;;;40.71;17.41
1926;BME280;964;42.606;23.588;2023-04-19T10:22:21;93978.19;;;39.22;18.52
1926;BME280;964;42.606;23.588;2023-04-19T10:25:08;93981.81;;;39.76;17.81
1926;BME280;964;42.606;23.588;2023-04-19T10:27:37;93968.72;;;39.10;18.21
1926;BME280;964;42.606;23.588;2023-04-19T10:30:05;93962.44;;;40.84;16.32
1926;BME280;964;42.606;23.588;2023-04-19T10:32:38;93956.50;;;40.88;15.89
1926;BME280;964;42.606;23.588;2023-04-19T10:35:09;93959.25;;;39.72;17.43
1926;BME280;964;42.606;23.588;2023-04-19T10:37:39;93960.34;;;39.69;17.68
1926;BME280;964;42.606;23.588;2023-04-19T10:40:08;93954.09;;;39.84;16.89
1926;BME280;964;42.606;23.588;2023-04-19T10:45:45;93944.78;;;41.37;16.45
1926;BME280;964;42.606;23.588;2023-04-19T10:48:31;93942.88;;;40.52;16.97
1926;BME280;964;42.606;23.588;2023-04-19T10:51:00;93955.13;;;39.50;17.77
1926;BME280;964;42.606;23.588;2023-04-19T10:53:49;93941.13;;;39.94;17.85
1926;BME280;964;42.606;23.588;2023-04-19T10:56:17;93939.31;;;41.22;17.21
1926;BME280;964;42.606;23.588;2023-04-19T10:59:13;93933.13;;;41.63;15.32
1926;BME280;964;42.606;23.588;2023-04-19T11:01:49;93931.66;;;40.90;17.00
1926;BME280;964;42.606;23.588;2023-04-19T11:04:18;93939.84;;;40.17;17.32
1926;BME280;964;42.606;23.588;2023-04-19T11:06:59;93937.22;;;40.20;17.11
1926;BME280;964;42.606;23.588;2023-04-19T11:09:29;93951.75;;;37.65;19.25
1926;BME280;964;42.606;23.588;2023-04-19T11:11:59;93958.63;;;36.44;19.41
1926;BME280;964;42.606;23.588;2023-04-19T11:14:29;93963.25;;;35.96;20.24
1926;BME280;964;42.606;23.588;2023-04-19T11:16:59;93958.34;;;35.89;20.43
1926;BME280;964;42.606;23.588;2023-04-19T11:19:26;93970.00;;;35.69;20.53
1926;BME280;964;42.606;23.588;2023-04-19T11:21:57;93960.19;;;35.55;21.10
1926;BME280;964;42.606;23.588;2023-04-19T11:24:24;93965.63;;;35.41;21.25
1926;BME280;964;42.606;23.588;2023-04-19T11:26:51;93958.25;;;37.00;21.29
1926;BME280;964;42.606;23.588;2023-04-19T11:29:18;93955.34;;;37.18;20.33
1926;BME280;964;42.606;23.588;2023-04-19T11:31:46;93963.25;;;38.18;19.61
1926;BME280;964;42.606;23.588;2023-04-19T11:34:15;93965.00;;;36.52;21.38
1926;BME280;964;42.606;23.588;2023-04-19T11:36:49;93958.75;;;37.11;20.72
1926;BME280;964;42.606;23.588;2023-04-19T11:39:16;93955.00;;;36.49;20.17
1926;BME280;964;42.606;23.588;2023-04-19T11:41:43;93961.81;;;36.08;21.20
1926;BME280;964;42.606;23.588;2023-04-19T11:44:15;93959.66;;;34.87;21.71
1926;BME280;964;42.606;23.588;2023-04-19T11:46:57;93954.72;;;36.99;20.78
1926;BME280;964;42.606;23.588;2023-04-19T11:49:30;93938.22;;;38.67;19.65
1926;BME280;964;42.606;23.588;2023-04-19T11:51:57;93954.28;;;38.33;19.45
1926;BME280;964;42.606;23.588;2023-04-19T11:54:25;93950.91;;;38.26;19.70
1926;BME280;964;42.606;23.588;2023-04-19T11:57:00;93956.94;;;36.54;20.09
1926;BME280;964;42.606;23.588;2023-04-19T11:59:28;93953.00;;;36.23;20.81
1926;BME280;964;42.606;23.588;2023-04-19T12:01:55;93960.19;;;35.04;21.78
1926;BME280;964;42.606;23.588;2023-04-19T12:04:22;93967.09;;;34.06;22.18
1926;BME280;964;42.606;23.588;2023-04-19T12:06:57;93958.88;;;35.05;21.74
1926;BME280;964;42.606;23.588;2023-04-19T12:09:25;93964.88;;;34.72;22.51
1926;BME280;964;42.606;23.588;2023-04-19T12:11:52;93962.19;;;35.22;21.45
1926;BME280;964;42.606;23.588;2023-04-19T12:14:20;93965.09;;;35.11;20.68
1926;BME280;964;42.606;23.588;2023-04-19T12:17:10;93957.56;;;35.12;21.14
1926;BME280;964;42.606;23.588;2023-04-19T12:19:42;93960.84;;;36.19;20.83
1926;BME280;964;42.606;23.588;2023-04-19T12:22:12;93954.50;;;35.66;20.78
1926;BME280;964;42.606;23.588;2023-04-19T12:24:41;93945.69;;;36.12;21.44
1926;BME280;964;42.606;23.588;2023-04-19T12:27:08;93932.69;;;36.73;20.24
1926;BME280;964;42.606;23.588;2023-04-19T12:29:36;93944.53;;;37.07;20.79
1926;BME280;964;42.606;23.588;2023-04-19T12:32:04;93932.53;;;38.08;19.96
1926;BME280;964;42.606;23.588;2023-04-19T12:34:31;93936.03;;;37.60;20.27
1926;BME280;964;42.606;23.588;2023-04-19T12:36:58;93941.00;;;37.82;19.97
1926;BME280;964;42.606;23.588;2023-04-19T12:39:26;93937.97;;;36.97;19.99
1926;BME280;964;42.606;23.588;2023-04-19T12:41:53;93937.22;;;36.10;20.87
1926;BME280;964;42.606;23.588;2023-04-19T12:44:20;93942.69;;;36.63;20.55
1926;BME280;964;42.606;23.588;2023-04-19T12:46:47;93945.34;;;36.03;20.87
1926;BME280;964;42.606;23.588;2023-04-19T12:49:16;93950.28;;;35.78;20.59
1926;BME280;964;42.606;23.588;2023-04-19T12:51:43;93944.81;;;35.59;20.88
1926;BME280;964;42.606;23.588;2023-04-19T12:54:12;93961.72;;;34.19;21.96
1926;BME280;964;42.606;23.588;2023-04-19T12:56:40;93956.31;;;33.84;22.38
1926;BME280;964;42.606;23.588;2023-04-19T12:59:07;93957.72;;;33.66;22.31
1926;BME280;964;42.606;23.588;2023-04-19T13:01:34;93963.06;;;34.07;22.01
1926;BME280;964;42.606;23.588;2023-04-19T13:04:00;93960.56;;;33.49;23.37
1926;BME280;964;42.606;23.588;2023-04-19T13:06:27;93958.59;;;34.04;22.76
1926;BME280;964;42.606;23.588;2023-04-19T13:08:54;93948.41;;;34.23;22.21
1926;BME280;964;42.606;23.588;2023-04-19T13:11:21;93950.50;;;34.17;22.48
1926;BME280;964;42.606;23.588;2023-04-19T13:13:52;93942.47;;;34.19;21.56
1926;BME280;964;42.606;23.588;2023-04-19T13:16:19;93935.69;;;34.63;21.32
1926;BME280;964;42.606;23.588;2023-04-19T13:18:46;93933.00;;;35.14;20.90
1926;BME280;964;42.606;23.588;2023-04-19T13:21:13;93935.41;;;34.67;20.81
1926;BME280;964;42.606;23.588;2023-04-19T13:23:42;93926.97;;;35.47;20.44
1926;BME280;964;42.606;23.588;2023-04-19T13:26:09;93915.53;;;35.88;19.34
1926;BME280;964;42.606;23.588;2023-04-19T13:28:36;93911.72;;;36.30;19.80
1926;BME280;964;42.606;23.588;2023-04-19T13:31:05;93909.81;;;36.25;19.14
1926;BME280;964;42.606;23.588;2023-04-19T13:33:32;93921.25;;;34.76;21.21
1926;BME280;964;42.606;23.588;2023-04-19T13:35:59;93935.84;;;34.89;20.48
1926;BME280;964;42.606;23.588;2023-04-19T13:38:26;93938.63;;;34.46;20.80